Wilbern, Illinois
Current Conditions -  °F | °C
As of 6:35 AM on Monday 24 Nov 2014 (Local Time) from KC75 Reporting Station
Moderate Rain Moderate Rain  
Wind Chill: 24°   Ceiling: 1500
Heat Index: 34°   Visibility: 4mi
Dew Point: 32°   Wind: 16mph
Humidity: 91%   Direction: 280°W
Pressure: 29.24"   Gusts: 24mph
Location:  40.9035°N, 89.2599°W
Report Text: KC75 241235Z AUTO 28014G21KT 4SM RA SCT010 BKN015 OVC021 01/00 A2924 RMK AO2 P0006 T00130000
Loading
Personal Weather Stations






























Interactive Weather Map New forecast layout! Learn more

10-Day Weather Forecast

Advertisements
Track Severe Weather on mobile